createdAt,value
2023-01-11T00:03:41.450Z,49.4
2023-01-11T00:09:00.244Z,50.2
2023-01-11T00:14:19.022Z,49.5
2023-01-11T00:19:37.194Z,50.3
2023-01-11T00:24:55.709Z,50.3
2023-01-11T00:29:58.598Z,49.6
2023-01-11T00:35:16.818Z,50.1
2023-01-11T00:40:35.345Z,50.4
2023-01-11T00:45:54.017Z,50.9
2023-01-11T00:51:12.786Z,51.1
2023-01-11T00:56:31.308Z,50.1
2023-01-11T01:01:49.512Z,51.1
2023-01-11T01:07:08.265Z,50.9
2023-01-11T01:12:26.762Z,50.2
2023-01-11T01:17:45.243Z,50.1
2023-01-11T01:23:03.457Z,51.3
2023-01-11T01:28:22.432Z,50.5
2023-01-11T01:33:40.743Z,50.3
2023-01-11T01:38:59.470Z,50.5
2023-01-11T01:44:18.262Z,50.9
2023-01-11T01:49:37.035Z,50.9
2023-01-11T01:54:55.510Z,50.6
2023-01-11T02:00:13.480Z,51.1
2023-01-11T02:05:31.720Z,50.2
2023-01-11T02:10:49.969Z,50.8
2023-01-11T02:16:09.384Z,51.1
2023-01-11T02:21:27.354Z,50.3
2023-01-11T02:26:45.826Z,51
2023-01-11T02:32:03.784Z,50.9
2023-01-11T02:37:21.700Z,51
2023-01-11T02:42:40.208Z,51.3
2023-01-11T02:47:59.008Z,51.2
2023-01-11T02:53:17.214Z,50.8
2023-01-11T02:58:35.692Z,51.1
2023-01-11T03:03:54.491Z,51.5
2023-01-11T03:09:13.072Z,51.8
2023-01-11T03:14:31.839Z,51.3
2023-01-11T03:19:49.788Z,51.6
2023-01-11T03:25:08.588Z,51.3
2023-01-11T03:30:27.085Z,51.8
2023-01-11T03:35:45.607Z,52.4
2023-01-11T03:41:04.082Z,51.8
2023-01-11T03:46:22.543Z,51.7
2023-01-11T03:51:40.828Z,51.7
2023-01-11T03:56:59.295Z,51.6
2023-01-11T04:02:17.770Z,50.8
2023-01-11T04:07:36.721Z,51.6
2023-01-11T04:12:54.949Z,50.7
2023-01-11T04:18:12.868Z,52.1
2023-01-11T04:23:31.365Z,51.7
2023-01-11T04:28:50.486Z,51.1
2023-01-11T04:34:09.656Z,51.4
2023-01-11T04:39:28.448Z,51.2
2023-01-11T04:44:46.652Z,50.6
2023-01-11T04:50:05.798Z,50.6
2023-01-11T04:55:24.032Z,50.4
2023-01-11T05:00:42.236Z,50.9
2023-01-11T05:06:00.699Z,51.9
2023-01-11T05:11:18.947Z,50.8
2023-01-11T05:16:38.060Z,50.8
2023-01-11T05:21:56.947Z,50.7
2023-01-11T05:27:15.429Z,51.2
2023-01-11T05:32:33.355Z,51
2023-01-11T05:37:52.139Z,51.8
2023-01-11T05:43:10.944Z,51.5
2023-01-11T05:48:28.876Z,51.4
2023-01-11T05:53:47.653Z,51.5
2023-01-11T05:59:06.417Z,51.6
2023-01-11T06:04:25.209Z,51.2
2023-01-11T06:09:43.676Z,51.5
2023-01-11T06:15:01.913Z,50.9
2023-01-11T06:20:20.676Z,51.2
2023-01-11T06:25:39.174Z,50.8
2023-01-11T06:30:57.394Z,52
2023-01-11T06:36:16.336Z,51.3
2023-01-11T06:41:34.545Z,51.4
2023-01-11T06:46:53.056Z,50.7
2023-01-11T06:52:11.562Z,50.5
2023-01-11T06:57:30.065Z,50.7
2023-01-11T07:02:48.562Z,50.9
2023-01-11T07:08:06.769Z,51
2023-01-11T07:13:25.586Z,50.5
2023-01-11T07:18:47.301Z,50.8
2023-01-11T07:24:05.264Z,51.1
2023-01-11T07:29:08.228Z,50.4
2023-01-11T07:34:27.023Z,51.1
2023-01-11T07:39:45.532Z,50
2023-01-11T07:45:04.025Z,50.2
2023-01-11T07:50:22.268Z,49.8
2023-01-11T07:55:41.034Z,50.2
2023-01-11T08:00:59.928Z,50.8
2023-01-11T08:06:18.973Z,50.7
2023-01-11T08:11:37.434Z,50.6
2023-01-11T08:16:55.920Z,50.4
2023-01-11T08:22:14.731Z,50.1
2023-01-11T08:27:32.974Z,50
2023-01-11T08:32:51.206Z,50.2
2023-01-11T08:38:09.477Z,50.5
2023-01-11T08:43:28.259Z,50.1
2023-01-11T08:48:46.714Z,48.7
2023-01-11T08:54:05.259Z,48
2023-01-11T08:59:23.717Z,48.6
2023-01-11T09:04:42.478Z,48.9
2023-01-11T09:10:00.978Z,49
2023-01-11T09:15:03.867Z,49.3
2023-01-11T09:20:22.627Z,49.9
2023-01-11T09:25:40.866Z,49.3
2023-01-11T09:30:59.446Z,49.3
2023-01-11T09:36:02.035Z,49.1
2023-01-11T09:41:04.660Z,49.8
2023-01-11T09:46:23.071Z,49.5
2023-01-11T09:51:41.271Z,49.9
2023-01-11T09:56:59.763Z,49.8
2023-01-11T10:02:18.278Z,49
2023-01-11T10:07:37.031Z,48.5
2023-01-11T10:19:42.123Z,49.7
2023-01-11T10:25:03.663Z,49
2023-01-11T10:30:22.482Z,49.2
2023-01-11T10:35:40.551Z,49.5
2023-01-11T10:40:58.784Z,49.7
2023-01-11T10:46:17.455Z,49.8
2023-01-11T10:51:35.688Z,49.8
2023-01-11T10:57:06.664Z,49.1
2023-01-11T11:02:27.845Z,49.8
2023-01-11T11:07:46.441Z,49.2
2023-01-11T11:13:04.413Z,49.3
2023-01-11T11:18:23.078Z,49.2
2023-01-11T11:23:41.301Z,49.4
2023-01-11T11:28:59.745Z,50.2
2023-01-11T11:34:17.939Z,50.2
2023-01-11T11:39:35.886Z,50.5
2023-01-11T11:44:54.085Z,49.6
2023-01-11T11:50:12.921Z,49.8
2023-01-11T11:55:31.122Z,50.4
2023-01-11T12:00:49.599Z,48.5
2023-01-11T12:06:08.133Z,48.7
2023-01-11T12:11:26.333Z,47.2
2023-01-11T12:16:45.081Z,47.5
2023-01-11T12:22:03.043Z,47.8
2023-01-11T12:27:21.553Z,47.4
2023-01-11T12:32:40.154Z,47.5
2023-01-11T12:37:58.657Z,47.5
2023-01-11T12:43:16.556Z,47.8
2023-01-11T12:48:35.052Z,48.5
2023-01-11T12:53:53.028Z,48.4
2023-01-11T12:59:11.593Z,48.5
2023-01-11T13:04:29.543Z,48.7
2023-01-11T13:09:48.335Z,48.1
2023-01-11T13:15:06.809Z,48.4
2023-01-11T13:20:25.570Z,49.1
2023-01-11T13:25:44.377Z,49.2
2023-01-11T13:31:03.448Z,49.1
2023-01-11T13:36:24.345Z,49
2023-01-11T13:41:43.216Z,49.3
2023-01-11T13:47:01.809Z,48.9
2023-01-11T13:52:20.253Z,48.5
2023-01-11T13:57:39.027Z,48.5
2023-01-11T14:02:57.261Z,48.7
2023-01-11T14:08:15.756Z,49.1
2023-01-11T14:13:34.278Z,49.2
2023-01-11T14:18:36.889Z,49.4
2023-01-11T14:23:55.498Z,48.5
2023-01-11T14:29:14.342Z,48.5
2023-01-11T14:34:32.810Z,49.4
2023-01-11T14:39:51.171Z,49.9
2023-01-11T14:45:09.985Z,49.9
2023-01-11T14:50:28.356Z,49.1
2023-01-11T14:55:46.848Z,49.2
2023-01-11T15:01:05.364Z,49.6
2023-01-11T15:06:23.594Z,49.4
2023-01-11T15:11:41.816Z,48.8
2023-01-11T15:17:00.324Z,49
2023-01-11T15:22:18.531Z,49.1
2023-01-11T15:27:37.002Z,49.8
2023-01-11T15:32:55.348Z,48.9
2023-01-11T15:38:13.437Z,48.9
2023-01-11T15:43:32.229Z,49.7
2023-01-11T15:48:50.997Z,49.3
2023-01-11T15:54:09.312Z,49.7
2023-01-11T15:59:27.805Z,50
2023-01-11T16:04:46.585Z,49.9
2023-01-11T16:10:04.916Z,49.9
2023-01-11T16:15:23.117Z,50.1
2023-01-11T16:20:41.603Z,49.3
2023-01-11T16:26:00.242Z,49.2
2023-01-11T16:31:18.554Z,49.3
2023-01-11T16:36:36.784Z,49.7
2023-01-11T16:41:54.981Z,50
2023-01-11T16:47:13.218Z,49.6
2023-01-11T16:52:31.146Z,49.7
2023-01-11T16:57:49.371Z,49.4
2023-01-11T17:03:07.860Z,49.8
2023-01-11T17:08:26.100Z,50.7
2023-01-11T17:13:44.285Z,50.7
2023-01-11T17:19:02.776Z,49.8
2023-01-11T17:24:21.560Z,49.9
2023-01-11T17:29:39.813Z,50.1
2023-01-11T17:34:58.019Z,50.6
2023-01-11T17:40:16.230Z,52.2
2023-01-11T17:45:34.896Z,51.2
2023-01-11T17:50:53.098Z,51.2
2023-01-11T17:56:11.338Z,51
2023-01-11T18:01:30.414Z,50.8
2023-01-11T18:06:49.216Z,50.2
2023-01-11T18:12:07.718Z,49.7
2023-01-11T18:17:26.208Z,50.5
2023-01-11T18:22:44.404Z,50.2
2023-01-11T18:28:03.186Z,49.3
2023-01-11T18:33:21.978Z,49.9
2023-01-11T18:38:24.570Z,49.8
2023-01-11T18:43:43.071Z,49.4
2023-01-11T18:49:01.627Z,49
2023-01-11T18:54:20.079Z,47.9
2023-01-11T18:59:38.613Z,48.3
2023-01-11T19:04:57.122Z,49.2
2023-01-11T19:10:15.627Z,48.5
2023-01-11T19:15:17.985Z,48.9
2023-01-11T19:20:36.249Z,48.8
2023-01-11T19:25:54.600Z,49.6
2023-01-11T19:31:13.468Z,49
2023-01-11T19:36:32.012Z,49.6
2023-01-11T19:41:34.870Z,49.6
2023-01-11T19:47:13.094Z,49.9
2023-01-11T19:52:31.514Z,49.7
2023-01-11T19:57:50.234Z,49.9
2023-01-11T20:03:08.766Z,49
2023-01-11T20:08:11.712Z,49.2
2023-01-11T20:13:29.891Z,49.6
2023-01-11T20:18:48.415Z,49.2
2023-01-11T20:24:06.881Z,49.2
2023-01-11T20:29:25.182Z,49.2
2023-01-11T20:34:43.734Z,49.2
2023-01-11T20:40:02.205Z,50
2023-01-11T20:45:05.365Z,50.2
2023-01-11T20:50:23.628Z,49.6
2023-01-11T20:55:42.264Z,49.7
2023-01-11T21:01:00.788Z,50.7
2023-01-11T21:06:19.564Z,50.5
2023-01-11T21:11:40.687Z,50.4
2023-01-11T21:16:59.214Z,50.8
2023-01-11T21:22:17.437Z,50.2
2023-01-11T21:27:36.186Z,50.8
2023-01-11T21:32:54.671Z,49.9
2023-01-11T21:38:13.469Z,50.6
2023-01-11T21:43:31.374Z,50
2023-01-11T21:48:49.306Z,50
2023-01-11T21:54:07.812Z,50.9
2023-01-11T21:59:26.010Z,51
2023-01-11T22:04:44.734Z,50.3
2023-01-11T22:10:05.966Z,50.3
2023-01-11T22:15:24.580Z,51
2023-01-11T22:20:42.827Z,50.4
2023-01-11T22:26:01.041Z,50.8
2023-01-11T22:31:19.350Z,51.1
2023-01-11T22:36:37.840Z,50.5
2023-01-11T22:41:56.067Z,50.9
2023-01-11T22:47:14.586Z,49.9
2023-01-11T22:52:32.936Z,49.6
2023-01-11T22:57:51.478Z,49.1
2023-01-11T23:03:10.191Z,48.9
2023-01-11T23:08:28.843Z,47.8
2023-01-11T23:13:47.076Z,48.2
2023-01-11T23:19:05.269Z,49.3
2023-01-11T23:24:23.744Z,49.2
2023-01-11T23:29:28.156Z,49
2023-01-11T23:34:46.065Z,47.8
2023-01-11T23:40:03.977Z,47.5
2023-01-11T23:45:22.774Z,48.4
2023-01-11T23:50:41.274Z,47.5
2023-01-11T23:55:59.479Z,47.2
